Aeroporto :
LOGIN :

Iscrizione | Disclaimer

   EN    FR    IT 

 










Sommario :    VFR   VFR Marginale   IFR   IFR Intensivo   IFR Molto Intensivo
Visibilità : 
Base nubi : 
>= 8 km
>= 3000ft
5 / 8 km
1000 / 3000 ft
1500m / 5 km
500 / 1000 ft
800 / 1500m
200 / 500 ft
< 800m
< 200 ft
Simboli :   Temporali  Nebbia  Neve Forte  Precipitazioni Forti  Vento > 20 kt
SIGMETs :   Varie  Temporali  Ghiacco  Turbolenza  Onda orograficha  Ceneri Vulcaniche






- Altitudine del aeroporto : 336 ft
- Codice IATA : GCI


EGJB - Guernsey

ULTIMO METAR :
  • 171150Z 26024G37KT 9999 VCSH FEW010 FEW015CB 07/05 Q1015

METARs OBSOLETI :
  • 171120Z 26027G38KT 9999 -SHRAGS SCT015CB SCT020 BKN030 07/06 Q1015 RESHRA
  • 171050Z 25026KT 9999 VCSH FEW015CB SCT020 08/06 Q1014
  • 171020Z 25024G35KT 9999 -SHRA FEW015CB SCT030 08/06 Q1014 RESHRA
  • 170950Z 25024KT 9999 VCSH FEW015CB SCT035 09/04 Q1013
  • 170920Z 25023G33KT 9999 FEW015CB 09/04 Q1013

TAF TAF EGJB
Valido dal 17 a 12 ore il 17 a 21 ore UTC


171102Z 1712/1721 26023KT 9999 FEW015CB SCT025
TEMPO 1712/1719 27028G42KT 6000 SHRA BKN012CB
PROB30
TEMPO 1712/1719 3000 TSRAGS
PROB30
TEMPO 1719/1721 8000 SHRA BKN015
ATIS : +44 1481 238 957



MetMap, La meteo Aeronautica in un colpo d'occhio ! - Copyright ORBIFLY Dicembre 2007 - Disclaimer

ORBIFLY MET'MAP TEAM :

Programmazione e sviluppo : Alexandra Zaïnal
Concezione : Baudouin d'Aumeries
Aiuto per la programmazione : Marc-Olivier Méhu
Supporto tecnico e logistico : Manuel Goepfert
Aiuto per la traduzione : Arnaldo La Scala

Contatto : metmap@orbifly.com




FONTI E CREDITI :

   NOAA